Idaho, Ohio
Current Conditions -  °F | °C
As of 3:34 PM on Friday 28 Nov 2014 (Local Time) from KRZT Reporting Station
Clear Clear  
Wind Chill: 26°   Ceiling: Unl
Heat Index: 32°   Visibility: 10mi
Dew Point: 18°   Wind: 7mph
Humidity: 55%   Direction: 210°SSW
Pressure: 30.25"   Gusts: NA
Location:  39.0491°N, 83.1454°W
Report Text: KRZT 282034Z AUTO 21006KT 10SM CLR 00/M08 A3025 RMK AO2
Loading
Personal Weather Stations






























Interactive Weather Map New forecast layout! Learn more

10-Day Weather Forecast

Advertisements
Track Severe Weather on mobile